Time;durP1;ratioP1;P1;durP2;ratioP2;P2;SDS_P1;SDS_P2;PMS_P1;PMS_P2;Temp;Humidity;BMP_temperature;BMP_pressure;BME280_temperature;BME280_humidity;BME280_pressure;Samples;Min_cycle;Max_cycle;Signal;HPM_P1;HPM_P2
2023/01/05 00:01:48;;;;;;;5.07;4.57;;;7.80;99.90;;;7.68;85.76;99134.84;5095852;28;20580;-66
2023/01/05 00:04:16;;;;;;;5.30;4.80;;;7.90;99.90;;;7.68;85.79;99130.56;5109546;28;20276;-66
2023/01/05 00:06:47;;;;;;;6.07;5.33;;;7.90;99.90;;;7.70;86.08;99123.72;5108433;28;20203;-65
2023/01/05 00:09:17;;;;;;;5.83;5.10;;;7.90;99.90;;;7.71;86.44;99125.41;5107460;28;20737;-67
2023/01/05 00:23:04;;;;;;;6.70;5.20;;;8.00;99.90;;;7.84;86.17;99099.56;5108939;28;20218;-66
2023/01/05 00:25:36;;;;;;;6.57;5.07;;;8.00;99.90;;;7.84;85.66;99100.44;5109063;28;20196;-65
2023/01/05 00:28:05;;;;;;;7.27;4.97;;;8.00;99.90;;;7.87;85.35;99086.69;5108617;28;20651;-66
2023/01/05 00:30:39;;;;;;;5.30;4.80;;;8.10;99.90;;;7.89;85.31;99090.09;5110124;28;20312;-66
2023/01/05 00:33:09;;;;;;;5.80;4.57;;;8.10;99.90;;;7.92;85.54;99092.59;5110082;28;20207;-66
2023/01/05 00:35:38;;;;;;;5.50;5.00;;;8.10;99.90;;;7.94;85.40;99095.97;5111019;28;20257;-67
2023/01/05 00:38:08;;;;;;;5.43;4.53;;;8.10;99.90;;;7.97;84.95;99088.25;5090263;28;20644;-66
2023/01/05 00:40:37;;;;;;;5.60;4.97;;;8.10;99.90;;;7.96;85.39;99082.28;5108697;28;20232;-68
2023/01/05 00:43:05;;;;;;;7.23;4.77;;;8.10;99.90;;;8.00;85.05;99070.25;5109452;28;20223;-66
2023/01/05 00:45:35;;;;;;;6.13;4.73;;;8.10;99.90;;;8.01;84.60;99091.59;5107649;28;20257;-67
2023/01/05 00:48:03;;;;;;;5.77;4.57;;;8.20;99.90;;;8.03;84.63;99075.31;5110341;28;20208;-66
2023/01/05 00:50:32;;;;;;;10.00;5.00;;;8.20;99.90;;;8.06;84.23;99080.38;5109825;28;20218;-65
2023/01/05 00:53:00;;;;;;;6.17;4.43;;;8.20;99.90;;;8.05;84.21;99060.72;5109586;28;20207;-67
2023/01/05 00:55:30;;;;;;;4.63;4.23;;;8.20;99.90;;;8.08;84.33;99062.41;5108448;28;20606;-66
2023/01/05 00:57:58;;;;;;;4.77;4.27;;;8.30;99.90;;;8.09;84.77;99056.41;5109985;28;20315;-67
2023/01/05 01:00:27;;;;;;;7.50;4.80;;;8.30;99.90;;;8.10;84.25;99053.81;5110811;28;20232;-66
2023/01/05 01:02:55;;;;;;;6.30;4.53;;;8.30;99.90;;;8.11;83.60;99058.06;5107298;28;20596;-67
2023/01/05 01:05:24;;;;;;;4.63;4.00;;;8.30;99.90;;;8.11;84.07;99042.69;5107732;28;20307;-68
2023/01/05 01:07:53;;;;;;;4.73;4.10;;;8.30;99.90;;;8.16;84.44;99065.69;5110329;28;20235;-65
2023/01/05 01:10:24;;;;;;;5.87;4.30;;;8.30;99.90;;;8.16;83.72;99050.28;5105588;28;20258;-65
2023/01/05 01:12:57;;;;;;;5.20;4.37;;;8.30;99.90;;;8.17;84.50;99036.56;5100625;28;20294;-67
2023/01/05 01:15:25;;;;;;;4.50;4.10;;;8.40;99.90;;;8.18;83.58;99046.00;5110260;28;20338;-68
2023/01/05 01:17:54;;;;;;;4.73;3.53;;;8.40;99.90;;;8.19;83.65;99034.84;5109625;28;20547;-65
2023/01/05 01:20:22;;;;;;;4.60;3.70;;;8.40;99.90;;;8.19;83.63;99030.56;5108247;28;20239;-66
2023/01/05 01:22:50;;;;;;;5.23;3.83;;;8.40;99.90;;;8.21;84.02;99028.81;5108963;28;20621;-69
2023/01/05 01:25:19;;;;;;;5.23;3.93;;;8.40;99.90;;;8.22;84.56;99030.50;5108688;28;20203;-66
2023/01/05 01:27:47;;;;;;;6.60;4.13;;;8.40;99.90;;;8.23;84.09;99031.34;5109789;28;20204;-66
2023/01/05 01:30:18;;;;;;;4.27;3.80;;;8.40;99.90;;;8.26;84.94;99025.31;5108743;28;20196;-67
2023/01/05 01:32:47;;;;;;;5.00;4.50;;;8.40;99.90;;;8.23;84.21;99019.34;5107542;28;20207;-68
2023/01/05 01:35:15;;;;;;;5.33;4.43;;;8.40;99.90;;;8.21;84.70;99025.38;5094909;28;20276;-66
2023/01/05 01:37:44;;;;;;;4.27;3.87;;;8.40;99.90;;;8.21;84.44;99015.13;5109169;28;20621;-67
2023/01/05 01:40:13;;;;;;;5.20;3.97;;;8.40;99.90;;;8.21;84.73;99013.41;5107951;28;20576;-66
2023/01/05 01:42:41;;;;;;;4.03;3.63;;;8.40;99.90;;;8.20;84.58;99016.84;5109659;28;20210;-69
2023/01/05 01:45:21;;;;;;;6.13;4.47;;;8.40;99.90;;;8.20;85.54;99010.88;5107564;28;20238;-65
2023/01/05 01:47:55;;;;;;;7.33;5.90;;;8.40;99.90;;;8.20;85.26;99009.13;5113039;28;20683;-67
2023/01/05 01:50:30;;;;;;;6.37;5.77;;;8.40;99.90;;;8.20;85.73;99000.59;5099876;28;20939;-68
2023/01/05 01:53:05;;;;;;;6.70;6.00;;;8.40;99.90;;;8.19;85.58;98997.19;5113485;28;20275;-66
2023/01/05 01:55:34;;;;;;;7.40;4.73;;;8.40;99.90;;;8.19;85.55;98979.22;5110426;28;20211;-67
2023/01/05 01:58:10;;;;;;;5.00;4.13;;;8.40;99.90;;;8.19;86.38;98978.38;5113173;28;20284;-66
2023/01/05 02:00:41;;;;;;;4.43;3.90;;;8.40;99.90;;;8.20;85.96;98975.78;5112357;28;20258;-66
2023/01/05 02:03:10;;;;;;;3.60;3.30;;;8.40;99.90;;;8.22;85.87;98970.63;5111390;28;20959;-65
2023/01/05 02:05:39;;;;;;;4.37;3.13;;;8.50;99.90;;;8.23;85.29;98980.88;5113138;28;20204;-66
2023/01/05 02:08:12;;;;;;;3.03;2.80;;;8.40;99.90;;;8.25;85.71;98962.88;5112941;28;20204;-66
2023/01/05 02:10:57;;;;;;;3.13;2.50;;;8.40;99.90;;;8.28;85.97;98959.41;5110774;28;20207;-66
2023/01/05 02:13:56;;;;;;;2.50;2.30;;;8.50;99.90;;;8.30;85.48;98955.94;5109203;28;20200;-66
2023/01/05 02:16:38;;;;;;;2.33;2.13;;;8.50;99.90;;;8.36;85.24;98954.97;5105742;28;20253;-67
2023/01/05 02:20:01;;;;;;;2.43;2.20;;;8.50;99.90;;;8.37;85.29;98952.41;5111151;28;20236;-66
2023/01/05 02:22:59;;;;;;;2.07;1.97;;;8.60;99.90;;;8.41;85.52;98948.06;5111072;28;20216;-64
2023/01/05 02:26:00;;;;;;;2.80;2.43;;;8.60;99.90;;;8.41;84.77;98948.91;5111317;27;20244;-65
2023/01/05 02:28:53;;;;;;;3.57;2.67;;;8.60;99.90;;;8.45;84.92;98949.69;5102283;28;20645;-66
2023/01/05 02:31:25;;;;;;;3.33;2.70;;;8.60;99.90;;;8.44;84.87;98942.88;5107864;28;20196;-67
2023/01/05 02:34:07;;;;;;;2.63;2.43;;;8.60;99.90;;;8.47;84.50;98953.06;5111890;28;20207;-66
2023/01/05 02:36:46;;;;;;;2.37;2.17;;;8.60;99.90;;;8.51;84.21;98944.44;5110882;28;20542;-64
2023/01/05 02:39:18;;;;;;;2.13;1.90;;;8.70;99.90;;;8.52;84.26;98940.13;5110451;28;20227;-66
2023/01/05 02:41:53;;;;;;;3.23;2.40;;;8.70;99.90;;;8.54;84.20;98944.34;5111321;28;20304;-66
2023/01/05 02:44:22;;;;;;;2.50;2.30;;;8.70;99.90;;;8.55;84.36;98930.66;5111524;28;20241;-66
2023/01/05 02:47:02;;;;;;;2.37;2.17;;;8.70;99.90;;;8.57;84.24;98933.16;5105574;28;20204;-64
2023/01/05 02:49:35;;;;;;;3.67;2.10;;;8.80;99.90;;;8.59;83.45;98947.66;5110451;28;20461;-68
2023/01/05 02:52:06;;;;;;;2.40;2.20;;;8.80;99.90;;;8.61;83.97;98933.06;5110906;27;20649;-67
2023/01/05 02:54:40;;;;;;;2.47;2.27;;;8.80;99.90;;;8.63;83.29;98925.34;5092987;28;20204;-65
2023/01/05 02:57:14;;;;;;;2.90;2.60;;;8.80;99.90;;;8.64;83.47;98927.88;5110952;27;20620;-66
2023/01/05 02:59:47;;;;;;;2.43;2.23;;;8.80;99.90;;;8.65;83.10;98921.88;5111850;28;20228;-65
2023/01/05 03:02:21;;;;;;;3.40;2.23;;;8.90;99.90;;;8.66;83.36;98923.56;5107959;28;20668;-68
2023/01/05 03:04:56;;;;;;;3.20;2.30;;;8.90;99.90;;;8.68;83.60;98910.66;5108002;28;20192;-68
2023/01/05 03:07:31;;;;;;;2.47;2.20;;;8.90;99.90;;;8.66;83.36;98903.00;5101531;28;20227;-66
2023/01/05 03:13:39;;;;;;;1.87;1.73;;;8.90;99.90;;;8.69;82.93;98897.81;5111096;28;20199;-66
2023/01/05 03:15:42;;;;;;;2.83;2.63;;;8.90;99.90;;;8.74;83.33;98904.56;5091678;28;20219;-67
2023/01/05 03:18:16;;;;;;;2.83;2.23;;;8.90;99.90;;;8.73;82.84;98896.03;5110121;28;20690;-66
2023/01/05 03:20:48;;;;;;;2.87;2.27;;;8.90;99.90;;;8.75;83.04;98891.69;5107959;28;20235;-66
2023/01/05 03:37:37;;;;;;;2.00;1.90;;;8.90;99.90;;;8.75;83.06;98872.84;5103492;28;20608;-68
2023/01/05 03:40:13;;;;;;;2.43;2.23;;;8.90;99.90;;;8.75;82.63;98878.00;5109170;28;20235;-66
2023/01/05 03:42:43;;;;;;;2.67;2.00;;;8.90;99.90;;;8.71;82.97;98867.78;5110491;28;20718;-68
2023/01/05 03:45:13;;;;;;;1.90;1.80;;;8.90;99.90;;;8.68;83.30;98873.00;5110202;28;20261;-64
2023/01/05 03:47:41;;;;;;;2.07;1.93;;;8.90;99.90;;;8.67;82.94;98866.16;5110051;28;20203;-68
2023/01/05 03:50:12;;;;;;;3.63;2.40;;;8.90;99.90;;;8.65;83.38;98878.22;5109302;28;20261;-67
2023/01/05 03:52:41;;;;;;;2.13;2.00;;;8.90;99.90;;;8.63;83.65;98861.16;5102069;28;20646;-65
2023/01/05 03:55:10;;;;;;;2.03;1.90;;;8.80;99.90;;;8.64;83.67;98866.25;5107360;28;20573;-65
2023/01/05 03:57:38;;;;;;;2.67;1.30;;;8.80;99.90;;;8.62;83.58;98865.44;5110147;28;20203;-67
2023/01/05 04:00:09;;;;;;;3.63;1.60;;;8.90;99.90;;;8.62;83.22;98865.44;5108750;28;20282;-66
2023/01/05 04:02:37;;;;;;;1.73;1.60;;;8.80;99.90;;;8.62;82.65;98864.59;5110527;28;20757;-66
2023/01/05 04:05:07;;;;;;;1.30;1.20;;;8.80;99.90;;;8.61;82.66;98863.72;5110011;28;20204;-67
2023/01/05 04:07:37;;;;;;;1.73;1.63;;;8.80;99.90;;;8.59;83.13;98857.81;5110057;28;20203;-66
2023/01/05 04:10:06;;;;;;;3.17;1.63;;;8.80;99.90;;;8.61;82.56;98853.47;5107355;28;20251;-67
2023/01/05 04:12:37;;;;;;;1.63;1.53;;;8.80;99.90;;;8.60;82.52;98856.91;5108522;28;20553;-67
2023/01/05 04:15:06;;;;;;;2.33;1.50;;;8.80;99.90;;;8.59;82.49;98849.25;5109998;28;20655;-66
2023/01/05 04:17:35;;;;;;;1.50;1.40;;;8.80;99.90;;;8.58;82.93;98855.25;5107621;28;20287;-66
2023/01/05 04:20:05;;;;;;;1.50;1.40;;;8.80;99.90;;;8.57;82.77;98846.72;5109574;28;20734;-65
2023/01/05 04:22:35;;;;;;;1.63;1.50;;;8.70;99.90;;;8.55;82.37;98856.19;5109857;28;20319;-67
2023/01/05 04:25:06;;;;;;;1.40;1.30;;;8.70;99.90;;;8.56;82.28;98865.56;5110065;28;20561;-65
2023/01/05 04:27:35;;;;;;;2.43;1.37;;;8.70;99.90;;;8.54;83.12;98876.75;5108607;28;20226;-65
2023/01/05 04:30:05;;;;;;;2.40;1.43;;;8.70;99.90;;;8.51;82.89;98872.53;5109469;28;20233;-64
2023/01/05 04:32:33;;;;;;;1.50;1.40;;;8.70;99.90;;;8.50;83.20;98870.84;5106684;28;20562;-69
2023/01/05 04:35:02;;;;;;;1.50;1.40;;;8.70;99.90;;;8.45;82.96;98878.63;5103817;28;20246;-65
2023/01/05 04:37:39;;;;;;;1.90;1.43;;;8.70;99.90;;;8.45;82.61;98873.50;5108479;28;20200;-66
2023/01/05 04:40:10;;;;;;;1.50;1.30;;;8.70;99.90;;;8.44;82.88;98876.13;5097019;28;20660;-65
2023/01/05 04:42:38;;;;;;;1.20;1.10;;;8.60;99.90;;;8.43;83.40;98862.44;5110337;28;20215;-66
2023/01/05 04:45:08;;;;;;;2.60;1.40;;;8.60;99.90;;;8.43;82.72;98866.72;5109894;28;20212;-66
2023/01/05 04:47:36;;;;;;;1.40;1.30;;;8.60;99.90;;;8.41;82.93;98858.22;5108925;28;20196;-66
2023/01/05 04:50:06;;;;;;;1.50;1.20;;;8.60;99.90;;;8.40;82.65;98870.22;5109055;28;20216;-68
2023/01/05 04:52:35;;;;;;;1.30;1.20;;;8.50;99.90;;;8.37;83.07;98865.13;5108370;28;20700;-66
2023/01/05 04:55:04;;;;;;;2.87;1.20;;;8.50;99.90;;;8.33;82.88;98865.22;5109267;28;20257;-65
2023/01/05 04:57:34;;;;;;;1.57;1.47;;;8.50;99.90;;;8.34;83.54;98866.88;5109365;28;20203;-67
2023/01/05 05:00:03;;;;;;;1.57;1.47;;;8.50;99.90;;;8.28;83.31;98860.16;5107334;28;20312;-67
2023/01/05 05:02:32;;;;;;;1.50;1.40;;;8.50;99.90;;;8.30;83.39;98857.56;5109438;28;20604;-66
2023/01/05 05:05:01;;;;;;;3.30;2.20;;;8.50;99.90;;;8.30;83.45;98867.84;5107730;28;20282;-67
2023/01/05 05:07:29;;;;;;;2.10;1.70;;;8.50;99.90;;;8.27;84.56;98853.34;5109666;28;20234;-68
2023/01/05 05:09:57;;;;;;;1.67;1.57;;;8.50;99.90;;;8.26;84.84;98855.94;5101533;28;20231;-67
2023/01/05 05:12:26;;;;;;;1.70;1.60;;;8.50;99.90;;;8.27;83.99;98853.34;5109631;28;20226;-66
2023/01/05 05:14:56;;;;;;;1.67;1.57;;;8.40;99.90;;;8.26;84.46;98855.94;5109168;28;20223;-67
2023/01/05 05:17:24;;;;;;;2.80;2.00;;;8.50;99.90;;;8.24;84.29;98856.81;5111300;28;20207;-66
2023/01/05 05:19:53;;;;;;;2.97;1.80;;;8.40;99.90;;;8.26;83.76;98861.91;5113012;27;20231;-66
2023/01/05 05:22:21;;;;;;;2.53;1.90;;;8.50;99.90;;;8.27;85.01;98860.19;5112552;28;20239;-66
2023/01/05 05:24:49;;;;;;;2.63;1.90;;;8.40;99.90;;;8.26;84.15;98868.78;5112004;28;20221;-66
2023/01/05 05:27:18;;;;;;;2.17;1.90;;;8.50;99.90;;;8.26;84.67;98869.63;5113405;28;20258;-67
2023/01/05 05:29:46;;;;;;;1.80;1.60;;;8.50;99.90;;;8.26;84.35;98879.03;5112126;28;20235;-66
2023/01/05 05:32:16;;;;;;;1.90;1.80;;;8.40;99.90;;;8.23;84.33;98875.66;5112592;28;20262;-66
2023/01/05 05:34:44;;;;;;;2.20;1.80;;;8.60;99.90;;;8.21;84.42;98874.84;5112949;28;20615;-66
2023/01/05 05:37:12;;;;;;;1.93;1.70;;;8.40;99.90;;;8.20;85.33;98888.53;5113506;28;20277;-66
2023/01/05 05:39:41;;;;;;;1.70;1.60;;;8.40;99.90;;;8.19;84.96;98868.06;5112733;28;20228;-65
2023/01/05 05:42:09;;;;;;;1.60;1.50;;;8.40;99.90;;;8.18;85.04;98879.22;5110825;27;20211;-66
2023/01/05 05:44:38;;;;;;;1.83;1.60;;;8.40;99.90;;;8.18;84.77;98881.78;5111351;28;20208;-67
2023/01/05 05:47:06;;;;;;;1.53;1.40;;;8.40;99.90;;;8.17;84.95;98880.06;5112208;28;20204;-67
2023/01/05 05:49:36;;;;;;;1.73;1.20;;;8.40;99.90;;;8.17;84.04;98877.50;5112083;28;20655;-68
2023/01/05 05:52:05;;;;;;;1.60;1.50;;;8.40;99.90;;;8.13;84.29;98863.88;5109851;28;20609;-66
2023/01/05 05:54:33;;;;;;;1.97;1.30;;;8.30;99.90;;;8.16;84.43;98870.69;5112843;28;20200;-66
2023/01/05 05:57:01;;;;;;;1.47;1.37;;;8.40;99.90;;;8.16;83.49;98880.94;5112890;28;20262;-66
2023/01/05 05:59:30;;;;;;;1.80;1.20;;;8.30;99.90;;;8.16;83.96;98879.22;5110592;27;20203;-68
2023/01/05 06:01:58;;;;;;;1.80;1.00;;;8.30;99.90;;;8.15;83.09;98877.53;5107997;27;20608;-65
2023/01/05 06:04:27;;;;;;;2.10;1.10;;;8.30;99.90;;;8.14;83.51;98883.56;5104877;28;20292;-67
2023/01/05 06:06:57;;;;;;;1.23;0.70;;;8.30;99.90;;;8.13;82.91;98884.41;5109647;27;20200;-66
2023/01/05 06:09:26;;;;;;;1.00;0.90;;;8.30;99.90;;;8.13;82.90;98883.56;5109057;27;20206;-66
2023/01/05 06:11:54;;;;;;;1.33;1.00;;;8.30;99.90;;;8.12;82.48;98880.16;5110187;28;20200;-66
2023/01/05 06:14:23;;;;;;;2.60;1.17;;;8.30;99.90;;;8.12;82.67;98885.28;5108851;28;20656;-68
2023/01/05 06:16:54;;;;;;;1.90;1.07;;;8.30;99.90;;;8.11;81.52;98878.47;5111873;27;20196;-67
2023/01/05 06:19:23;;;;;;;1.83;1.10;;;8.20;99.90;;;8.14;82.01;98882.72;5112829;28;20283;-66
2023/01/05 06:21:51;;;;;;;1.20;1.10;;;8.30;99.90;;;8.12;82.55;98890.44;5108761;28;20222;-65
2023/01/05 06:24:21;;;;;;;1.53;0.87;;;8.30;99.90;;;8.13;81.74;98876.72;5115024;28;20281;-67
2023/01/05 06:26:49;;;;;;;1.50;1.20;;;8.30;99.90;;;8.13;81.49;98897.25;5113212;28;20228;-65
2023/01/05 06:29:18;;;;;;;1.23;0.80;;;8.30;99.90;;;8.13;81.41;98897.25;5111108;28;20656;-67
2023/01/05 06:31:46;;;;;;;1.67;1.00;;;8.30;99.90;;;8.13;81.62;98886.13;5109388;28;20204;-66
2023/01/05 06:34:15;;;;;;;2.20;1.40;;;8.30;99.90;;;8.13;82.03;98897.25;5111580;28;20207;-66
2023/01/05 06:36:43;;;;;;;1.00;1.00;;;8.30;99.90;;;8.13;81.21;98894.66;5111405;28;20204;-67
2023/01/05 06:39:12;;;;;;;1.30;1.20;;;8.30;99.90;;;8.11;81.27;98887.91;5106611;28;20203;-67
2023/01/05 06:41:42;;;;;;;1.73;1.03;;;8.30;99.90;;;8.14;81.96;98900.69;5111839;28;20338;-66
2023/01/05 06:44:11;;;;;;;4.50;1.10;;;8.30;99.90;;;8.14;81.47;98891.25;5110378;28;20642;-67
2023/01/05 06:46:39;;;;;;;1.70;1.00;;;8.30;99.90;;;8.14;80.88;98898.94;5111184;28;21909;-67
2023/01/05 06:49:10;;;;;;;4.47;1.10;;;8.30;99.90;;;8.15;82.15;98902.34;5111353;28;20239;-66
2023/01/05 06:51:39;;;;;;;1.73;1.30;;;8.30;99.90;;;8.15;81.92;98895.50;5107587;28;20261;-68
2023/01/05 06:54:07;;;;;;;3.13;1.43;;;8.30;99.90;;;8.16;81.60;98906.59;5111187;28;20229;-66
2023/01/05 06:56:36;;;;;;;1.03;0.93;;;8.30;99.90;;;8.14;82.11;98898.94;5109412;28;20626;-65
2023/01/05 06:59:05;;;;;;;4.00;1.47;;;8.30;99.90;;;8.16;81.92;98906.59;5110889;28;20245;-67
2023/01/05 07:01:34;;;;;;;2.40;1.30;;;8.30;99.90;;;8.16;82.39;98915.13;5109760;28;20235;-65
2023/01/05 07:04:02;;;;;;;2.33;1.50;;;8.30;99.90;;;8.15;82.08;98907.50;5110991;28;20232;-65
2023/01/05 07:06:31;;;;;;;3.97;1.37;;;8.30;99.90;;;8.16;82.50;98904.03;5104201;28;20303;-65
2023/01/05 07:09:00;;;;;;;1.93;1.67;;;8.40;99.90;;;8.15;83.01;98912.63;5107544;28;20290;-71
2023/01/05 07:11:28;;;;;;;2.40;1.73;;;8.30;99.90;;;8.15;82.94;98913.47;5110434;28;20575;-66
2023/01/05 07:13:57;;;;;;;2.30;1.50;;;8.30;99.90;;;8.16;82.48;98916.88;5111268;28;20200;-66
2023/01/05 07:16:27;;;;;;;2.60;1.63;;;8.30;99.90;;;8.18;82.85;98925.38;5111477;28;20204;-67
2023/01/05 07:18:55;;;;;;;1.97;1.77;;;8.40;99.90;;;8.18;82.69;98912.56;5110381;28;20268;-68
2023/01/05 07:21:23;;;;;;;2.77;1.80;;;8.40;99.90;;;8.19;83.37;98916.81;5111544;28;20424;-68
2023/01/05 07:23:52;;;;;;;3.40;1.90;;;8.40;99.90;;;8.20;82.68;98915.94;5109595;28;20247;-65
2023/01/05 07:26:20;;;;;;;2.40;1.73;;;8.40;99.90;;;8.19;82.86;98920.22;5111584;28;20204;-68
2023/01/05 07:28:49;;;;;;;3.57;2.17;;;8.40;99.90;;;8.22;83.18;98917.59;5111101;28;20215;-67
2023/01/05 07:31:17;;;;;;;5.70;2.27;;;8.40;99.90;;;8.21;83.99;98921.03;5111293;28;20648;-66
2023/01/05 07:33:47;;;;;;;2.47;1.80;;;8.40;99.90;;;8.21;83.83;98925.31;5111412;28;20287;-68
2023/01/05 07:36:15;;;;;;;3.83;2.13;;;8.40;99.90;;;8.22;83.39;98912.47;5111593;28;20219;-67
2023/01/05 07:38:44;;;;;;;2.33;2.10;;;8.40;99.90;;;8.23;84.21;98919.28;5110717;28;20207;-68
2023/01/05 07:41:12;;;;;;;4.10;2.33;;;8.40;99.90;;;8.24;83.85;98918.38;5104966;28;20239;-69
2023/01/05 07:43:42;;;;;;;2.37;2.17;;;8.40;99.90;;;8.26;83.66;98926.06;5105612;28;20491;-68
2023/01/05 07:46:11;;;;;;;2.83;2.17;;;8.40;99.90;;;8.27;83.23;98916.66;5111028;28;20273;-66
2023/01/05 07:48:40;;;;;;;2.37;2.17;;;8.50;99.90;;;8.28;83.03;98920.91;5110005;28;20232;-68
2023/01/05 07:51:11;;;;;;;2.70;2.50;;;8.50;99.90;;;8.29;83.72;98923.44;5108395;28;20566;-66
2023/01/05 07:53:39;;;;;;;4.93;2.27;;;8.50;99.90;;;8.32;83.44;98919.97;5111843;28;20694;-67
2023/01/05 07:56:12;;;;;;;3.67;2.10;;;8.50;99.90;;;8.34;83.75;98925.91;5106930;28;20319;-66
2023/01/05 07:58:42;;;;;;;2.90;2.27;;;8.50;99.90;;;8.37;83.66;98925.84;5107204;28;20257;-66
2023/01/05 08:01:16;;;;;;;3.43;2.00;;;8.60;99.90;;;8.40;83.67;98925.84;5105018;28;20254;-66
2023/01/05 08:03:45;;;;;;;3.57;2.20;;;8.60;99.90;;;8.42;83.63;98924.06;5108625;28;20309;-67
2023/01/05 08:06:18;;;;;;;5.83;2.20;;;8.60;99.90;;;8.42;83.06;98916.38;5107818;28;20204;-67
2023/01/05 08:08:47;;;;;;;5.30;2.23;;;8.60;99.90;;;8.44;82.93;98912.91;5111592;28;20194;-68
2023/01/05 08:11:19;;;;;;;3.77;2.00;;;8.60;99.90;;;8.46;83.62;98928.25;5108329;28;20207;-66
2023/01/05 08:14:01;;;;;;;4.50;2.30;;;8.60;99.90;;;8.45;83.03;98919.72;5107953;28;20195;-65
2023/01/05 08:16:32;;;;;;;2.87;2.20;;;8.70;99.90;;;8.44;82.56;98920.59;5102177;28;20663;-65
2023/01/05 08:19:01;;;;;;;5.80;2.13;;;8.60;99.90;;;8.45;82.25;98932.53;5107399;28;20244;-67
2023/01/05 08:21:36;;;;;;;3.70;2.63;;;8.60;99.90;;;8.46;82.76;98944.50;5111950;28;20203;-67
2023/01/05 08:24:05;;;;;;;4.20;2.10;;;8.60;99.90;;;8.45;82.50;98926.56;5111906;28;20215;-66
2023/01/05 08:26:34;;;;;;;2.47;2.00;;;8.70;99.90;;;8.46;82.63;98935.97;5111270;28;20261;-67
2023/01/05 08:29:03;;;;;;;2.63;2.00;;;8.60;99.90;;;8.48;82.87;98934.22;5110958;28;20387;-66
2023/01/05 08:31:35;;;;;;;2.53;1.90;;;8.70;99.90;;;8.48;82.66;98934.22;5109958;28;20200;-66
2023/01/05 08:34:05;;;;;;;2.07;1.90;;;8.70;99.90;;;8.51;82.11;98939.28;5107055;28;20228;-65
2023/01/05 08:36:35;;;;;;;3.63;1.83;;;8.70;99.90;;;8.53;81.82;98946.94;5108533;28;20204;-66
2023/01/05 08:39:04;;;;;;;3.33;1.90;;;8.70;99.90;;;8.53;82.07;98945.22;5111937;28;20219;-67
2023/01/05 08:41:35;;;;;;;5.43;2.40;;;8.70;99.90;;;8.53;82.11;98947.78;5108685;28;20206;-67
2023/01/05 08:44:06;;;;;;;4.30;2.13;;;8.70;99.90;;;8.52;81.96;98950.41;5112036;28;20664;-67
2023/01/05 08:46:36;;;;;;;2.53;1.80;;;8.70;99.90;;;8.52;81.37;98950.41;5106818;28;20200;-68
2023/01/05 08:49:07;;;;;;;5.13;2.17;;;8.70;99.90;;;8.52;81.37;98948.69;5109529;28;20196;-67
2023/01/05 08:51:37;;;;;;;4.73;2.50;;;8.70;99.90;;;8.52;81.55;98958.09;5107645;28;20227;-66
2023/01/05 08:54:06;;;;;;;4.57;2.20;;;8.70;99.90;;;8.51;81.04;98959.81;5111394;28;20580;-67
2023/01/05 08:56:34;;;;;;;5.40;2.37;;;8.70;99.90;;;8.50;81.49;98965.81;5107572;28;20218;-66
2023/01/05 08:59:07;;;;;;;6.27;2.07;;;8.70;99.90;;;8.50;81.61;98970.94;5110423;28;20208;-67
2023/01/05 09:01:36;;;;;;;3.80;2.20;;;8.70;99.90;;;8.52;82.29;98974.34;5107689;28;20220;-65
2023/01/05 09:04:05;;;;;;;5.07;2.20;;;8.70;99.90;;;8.55;81.92;98976.84;5110887;28;20208;-68
2023/01/05 09:06:34;;;;;;;7.63;2.43;;;8.70;99.90;;;8.57;82.00;98985.34;5110277;28;20204;-68
2023/01/05 09:09:04;;;;;;;3.47;2.50;;;8.70;99.90;;;8.57;82.13;98999.91;5109338;28;20200;-68
2023/01/05 09:11:33;;;;;;;4.73;2.60;;;8.80;99.90;;;8.54;81.70;98995.69;5109993;28;20211;-70
2023/01/05 09:14:02;;;;;;;3.73;2.10;;;8.70;99.90;;;8.52;81.71;98999.19;5111033;28;20215;-65
2023/01/05 09:16:34;;;;;;;1.83;1.60;;;8.70;99.90;;;8.49;80.94;98997.50;5110275;28;20215;-67
2023/01/05 09:19:23;;;;;;;2.73;1.50;;;8.70;99.90;;;8.47;80.74;99014.69;5106945;28;20233;-69
2023/01/05 09:21:52;;;;;;;3.87;1.20;;;8.70;99.90;;;8.48;79.63;99002.69;5111843;28;20204;-67
2023/01/05 09:24:22;;;;;;;2.67;0.97;;;8.70;99.90;;;8.45;79.20;98990.75;5111380;28;20210;-68
2023/01/05 09:26:50;;;;;;;2.13;1.17;;;8.60;99.90;;;8.43;77.97;99005.31;5110465;28;20208;-66
2023/01/05 09:29:19;;;;;;;2.47;1.10;;;8.60;99.90;;;8.41;77.46;99009.66;5107092;28;20208;-67
2023/01/05 09:31:47;;;;;;;2.63;1.17;;;8.60;99.90;;;8.37;77.50;99008.88;5103817;28;20667;-67
2023/01/05 09:34:17;;;;;;;2.50;1.10;;;8.60;99.90;;;8.38;76.94;99015.69;5101610;28;20223;-68
2023/01/05 09:36:46;;;;;;;3.70;1.67;;;8.60;99.90;;;8.38;76.42;98996.88;5101884;28;20215;-67
2023/01/05 09:39:14;;;;;;;3.13;1.40;;;8.60;99.90;;;8.48;76.47;99015.53;5102131;28;20207;-70
2023/01/05 09:41:49;;;;;;;3.33;1.30;;;8.60;99.90;;;8.61;75.90;99011.81;5102136;28;20265;-67
2023/01/05 09:44:30;;;;;;;1.53;1.00;;;8.80;99.90;;;8.82;75.35;99010.53;5100881;28;20231;-66
2023/01/05 09:47:04;;;;;;;1.33;1.20;;;9.00;99.90;;;9.01;74.67;99006.69;5104564;28;20200;-65
2023/01/05 09:49:34;;;;;;;6.97;2.50;;;9.20;99.90;;;9.10;74.28;99010.78;5103906;28;20196;-66
2023/01/05 09:52:08;;;;;;;3.07;1.13;;;9.30;99.90;;;9.20;74.15;99017.41;5109096;28;20220;-66
2023/01/05 09:54:38;;;;;;;2.03;1.30;;;9.40;99.90;;;9.24;72.31;99003.59;5109897;28;20213;-70
2023/01/05 09:57:17;;;;;;;1.87;1.30;;;9.40;99.90;;;9.28;72.06;99005.25;5098938;28;20227;-66
2023/01/05 09:59:49;;;;;;;3.17;1.20;;;9.50;99.90;;;9.44;71.76;99003.16;5108157;28;20224;-68
2023/01/05 10:02:33;;;;;;;2.77;1.50;;;9.60;99.90;;;9.71;71.17;98993.06;5109788;28;20498;-68
2023/01/05 10:05:04;;;;;;;2.00;1.20;;;9.90;99.90;;;10.15;69.70;99015.94;5113769;28;20254;-67
2023/01/05 10:07:42;;;;;;;3.43;1.00;;;10.40;99.90;;;10.57;68.33;99013.13;5113132;28;20418;-66
2023/01/05 10:10:26;;;;;;;4.30;1.93;;;10.80;99.90;;;10.72;66.35;99005.84;5109920;28;20221;-67
2023/01/05 10:13:05;;;;;;;3.10;1.30;;;10.90;99.90;;;10.56;66.01;99006.25;5112113;28;20204;-68
2023/01/05 10:15:40;;;;;;;1.87;1.20;;;10.80;99.90;;;10.39;66.77;99006.75;5113613;28;20233;-68
2023/01/05 10:18:14;;;;;;;4.37;1.67;;;10.60;99.90;;;10.25;67.54;99001.13;5114336;28;20286;-66
2023/01/05 10:21:01;;;;;;;3.03;1.30;;;10.50;99.90;;;10.26;68.15;99010.53;5109735;28;20280;-68
2023/01/05 10:24:01;;;;;;;4.07;2.30;;;10.50;99.90;;;10.61;68.25;98999.25;5114138;28;20718;-66
2023/01/05 10:26:43;;;;;;;2.90;1.53;;;10.90;99.90;;;10.80;67.34;99007.31;5108235;28;20338;-66
2023/01/05 10:29:43;;;;;;;4.47;1.87;;;11.10;99.90;;;10.72;66.54;99003.28;5113813;28;20473;-69
2023/01/05 10:32:24;;;;;;;2.60;1.63;;;10.90;99.90;;;10.53;66.61;99000.34;5114444;28;20235;-66
2023/01/05 10:34:58;;;;;;;3.37;2.03;;;10.80;99.90;;;10.31;67.81;99005.25;5112147;28;20257;-67
2023/01/05 10:38:01;;;;;;;3.47;1.40;;;10.50;99.90;;;10.26;68.56;99007.13;5111771;28;20241;-67
2023/01/05 10:40:47;;;;;;;3.47;1.40;;;10.50;99.90;;;10.46;68.65;98999.69;5100778;28;20241;-67
2023/01/05 10:43:41;;;;;;;2.70;1.50;;;10.70;99.90;;;10.49;68.81;98999.59;5105860;28;20656;-66
2023/01/05 10:46:13;;;;;;;4.43;1.80;;;10.70;99.90;;;10.47;67.86;99003.13;5110717;28;20261;-65
2023/01/05 10:49:02;;;;;;;2.60;1.50;;;10.60;99.90;;;10.36;68.71;99008.56;5113125;28;20556;-67
2023/01/05 10:51:33;;;;;;;3.77;1.47;;;10.50;99.90;;;10.25;68.61;99010.53;5107819;28;20215;-66
2023/01/05 10:54:03;;;;;;;7.67;1.90;;;10.40;99.90;;;10.20;69.13;99012.38;5108209;28;20196;-66
2023/01/05 10:56:31;;;;;;;5.03;1.60;;;10.40;99.90;;;10.15;69.22;99012.50;5111161;28;20204;-66
2023/01/05 10:59:09;;;;;;;3.63;1.87;;;10.30;99.90;;;10.01;68.45;99007.72;5110748;28;20249;-68
2023/01/05 11:01:44;;;;;;;3.90;1.80;;;10.20;99.90;;;9.85;68.61;99004.69;5108121;28;20220;-66
2023/01/05 11:04:17;;;;;;;5.50;2.00;;;10.00;99.90;;;9.71;68.49;99014.50;5107302;27;20204;-67
2023/01/05 11:07:04;;;;;;;5.77;2.30;;;9.90;99.90;;;9.56;68.92;99015.69;5115187;28;20263;-66
2023/01/05 11:09:33;;;;;;;3.57;2.27;;;9.70;99.90;;;9.46;68.84;99019.38;5116668;28;20581;-69
2023/01/05 11:12:03;;;;;;;6.30;2.20;;;9.60;99.90;;;9.34;68.77;99009.38;5098295;28;20245;-67
2023/01/05 11:14:38;;;;;;;4.40;2.20;;;9.50;99.90;;;9.22;69.64;99020.78;5116246;28;20204;-68
2023/01/05 11:17:13;;;;;;;3.23;1.90;;;9.40;99.90;;;9.11;69.51;99021.03;5110497;28;20199;-68
2023/01/05 11:19:47;;;;;;;5.13;2.10;;;9.30;99.90;;;9.03;69.24;99015.22;5101311;28;20235;-68
2023/01/05 11:22:30;;;;;;;4.87;2.23;;;9.20;99.90;;;8.96;69.65;99018.81;5095476;28;20204;-67